createdAt,value
2018-07-06T00:00:06.458Z,17.52
2018-07-06T00:02:51.509Z,17.54
2018-07-06T00:05:36.462Z,17.57
2018-07-06T00:08:21.426Z,17.59
2018-07-06T00:11:06.557Z,17.61
2018-07-06T00:13:51.302Z,17.65
2018-07-06T00:16:36.735Z,17.67
2018-07-06T00:19:21.613Z,17.68
2018-07-06T00:22:06.586Z,17.69
2018-07-06T00:24:51.500Z,17.71
2018-07-06T00:27:36.627Z,17.73
2018-07-06T00:30:21.510Z,17.74
2018-07-06T00:33:06.417Z,17.75
2018-07-06T00:35:51.375Z,17.76
2018-07-06T00:38:36.429Z,17.78
2018-07-06T00:41:21.513Z,17.80
2018-07-06T00:44:06.729Z,17.82
2018-07-06T00:46:51.557Z,17.83
2018-07-06T00:49:36.676Z,17.85
2018-07-06T00:52:21.536Z,17.86
2018-07-06T00:55:06.669Z,17.87
2018-07-06T00:57:52.150Z,17.90
2018-07-06T01:00:37.134Z,17.90
2018-07-06T01:03:22.111Z,17.92
2018-07-06T01:06:07.193Z,17.93
2018-07-06T01:08:52.299Z,17.94
2018-07-06T01:11:37.578Z,17.96
2018-07-06T01:14:22.536Z,17.97
2018-07-06T01:17:12.434Z,17.98
2018-07-06T01:19:57.587Z,17.99
2018-07-06T01:22:43.045Z,18.00
2018-07-06T01:25:27.836Z,18.00
2018-07-06T01:28:13.301Z,18.01
2018-07-06T01:30:58.409Z,17.80
2018-07-06T01:33:44.212Z,18.03
2018-07-06T01:36:29.108Z,18.03
2018-07-06T01:39:14.279Z,18.03
2018-07-06T01:41:59.201Z,18.04
2018-07-06T01:44:44.328Z,18.04
2018-07-06T01:47:30.229Z,18.05
2018-07-06T01:50:15.277Z,18.04
2018-07-06T01:53:00.070Z,18.02
2018-07-06T01:55:45.060Z,18.02
2018-07-06T01:58:29.851Z,18.02
2018-07-06T02:01:15.447Z,18.02
2018-07-06T02:04:00.405Z,18.01
2018-07-06T02:06:45.207Z,18.00
2018-07-06T02:09:30.220Z,18.01
2018-07-06T02:12:15.164Z,18.02
2018-07-06T02:15:00.122Z,18.00
2018-07-06T02:17:45.461Z,18.00
2018-07-06T02:20:30.270Z,18.00
2018-07-06T02:23:16.210Z,18.02
2018-07-06T02:26:01.102Z,18.01
2018-07-06T02:28:46.234Z,18.01
2018-07-06T02:31:31.171Z,18.00
2018-07-06T02:34:16.365Z,18.00
2018-07-06T02:37:01.325Z,18.00
2018-07-06T02:39:46.305Z,18.00
2018-07-06T02:42:31.214Z,17.99
2018-07-06T02:45:16.379Z,17.99
2018-07-06T02:48:01.366Z,17.99
2018-07-06T02:50:46.578Z,17.98
2018-07-06T02:53:31.333Z,17.98
2018-07-06T02:56:16.209Z,17.98
2018-07-06T02:59:01.077Z,17.99
2018-07-06T03:01:46.118Z,17.99
2018-07-06T03:04:31.072Z,17.98
2018-07-06T03:07:16.204Z,17.98
2018-07-06T03:10:01.317Z,17.98
2018-07-06T03:12:46.285Z,17.96
2018-07-06T03:15:31.092Z,17.95
2018-07-06T03:18:16.315Z,17.91
2018-07-06T03:21:01.188Z,17.88
2018-07-06T03:23:46.229Z,17.88
2018-07-06T03:26:31.103Z,17.85
2018-07-06T03:29:16.274Z,17.82
2018-07-06T03:32:01.092Z,17.80
2018-07-06T03:34:46.141Z,17.78
2018-07-06T03:37:30.925Z,17.77
2018-07-06T03:40:15.901Z,17.76
2018-07-06T03:43:00.860Z,17.74
2018-07-06T03:45:45.970Z,17.73
2018-07-06T03:48:31.082Z,17.71
2018-07-06T03:51:16.165Z,17.70
2018-07-06T03:54:00.985Z,17.68
2018-07-06T03:56:45.984Z,17.67
2018-07-06T03:59:30.827Z,17.67
2018-07-06T04:02:15.617Z,17.67
2018-07-06T04:05:00.511Z,17.66
2018-07-06T04:07:45.489Z,17.65
2018-07-06T04:10:30.454Z,17.66
2018-07-06T04:13:15.394Z,17.66
2018-07-06T04:16:00.467Z,17.67
2018-07-06T04:18:45.579Z,17.67
2018-07-06T04:21:30.488Z,17.67
2018-07-06T04:24:15.657Z,17.69
2018-07-06T04:27:01.277Z,17.70
2018-07-06T04:29:46.398Z,17.71
2018-07-06T04:32:31.722Z,17.72
2018-07-06T04:35:16.653Z,17.73
2018-07-06T04:38:01.402Z,17.73
2018-07-06T04:40:46.384Z,17.75
2018-07-06T04:43:31.157Z,17.75
2018-07-06T04:46:16.272Z,17.76
2018-07-06T04:49:01.148Z,17.80
2018-07-06T04:51:46.307Z,17.81
2018-07-06T04:54:31.082Z,17.81
2018-07-06T04:57:16.108Z,17.83
2018-07-06T05:00:00.908Z,17.86
2018-07-06T05:02:46.110Z,17.87
2018-07-06T05:05:31.076Z,17.89
2018-07-06T05:08:16.322Z,17.91
2018-07-06T05:11:01.329Z,17.93
2018-07-06T05:13:46.265Z,17.94
2018-07-06T05:16:31.182Z,17.97
2018-07-06T05:19:18.249Z,17.99
2018-07-06T05:22:03.100Z,18.01
2018-07-06T05:24:48.076Z,18.04
2018-07-06T05:27:33.013Z,18.06
2018-07-06T05:30:18.111Z,18.10
2018-07-06T05:33:02.953Z,18.14
2018-07-06T05:35:47.892Z,18.19
2018-07-06T05:38:32.823Z,18.23
2018-07-06T05:41:17.869Z,18.26
2018-07-06T05:44:02.582Z,18.31
2018-07-06T05:46:47.984Z,18.36
2018-07-06T05:49:32.780Z,18.41
2018-07-06T05:52:17.819Z,18.46
2018-07-06T05:55:02.764Z,18.52
2018-07-06T05:57:47.919Z,18.58
2018-07-06T06:00:32.930Z,18.62
2018-07-06T06:03:23.063Z,18.66
2018-07-06T06:06:07.890Z,18.69
2018-07-06T06:08:40.654Z,18.71
2018-07-06T06:11:08.190Z,18.73
2018-07-06T06:13:35.858Z,18.76
2018-07-06T06:16:03.821Z,18.79
2018-07-06T06:18:31.868Z,18.81
2018-07-06T06:21:00.352Z,18.84
2018-07-06T06:23:28.121Z,18.88
2018-07-06T06:25:55.817Z,18.91
2018-07-06T06:28:23.411Z,18.95
2018-07-06T06:30:51.209Z,18.98
2018-07-06T06:33:19.402Z,19.02
2018-07-06T06:35:48.123Z,19.04
2018-07-06T06:38:15.914Z,19.08
2018-07-06T06:40:43.782Z,19.12
2018-07-06T06:43:11.478Z,19.16
2018-07-06T06:45:39.932Z,19.22
2018-07-06T06:48:07.892Z,19.28
2018-07-06T06:50:36.507Z,19.35
2018-07-06T06:53:04.240Z,19.42
2018-07-06T06:58:30.903Z,19.50
2018-07-06T07:00:58.801Z,19.53
2018-07-06T07:03:26.520Z,19.57
2018-07-06T07:05:54.730Z,19.61
2018-07-06T07:08:22.657Z,19.67
2018-07-06T07:10:50.385Z,19.72
2018-07-06T07:13:18.283Z,19.77
2018-07-06T07:15:46.193Z,19.83
2018-07-06T07:18:13.973Z,19.90
2018-07-06T07:20:41.929Z,19.95
2018-07-06T07:23:10.093Z,20.00
2018-07-06T07:25:37.916Z,20.06
2018-07-06T07:28:05.698Z,20.12
2018-07-06T07:30:33.723Z,20.20
2018-07-06T07:33:01.389Z,20.28
2018-07-06T07:35:29.554Z,20.32
2018-07-06T07:37:57.499Z,20.37
2018-07-06T07:40:25.736Z,20.41
2018-07-06T07:42:54.582Z,20.46
2018-07-06T07:45:22.569Z,20.50
2018-07-06T07:47:50.310Z,20.51
2018-07-06T07:50:18.194Z,20.53
2018-07-06T07:52:57.042Z,20.55
2018-07-06T07:55:25.945Z,20.57
2018-07-06T07:57:53.670Z,20.60
2018-07-06T08:00:21.376Z,20.62
2018-07-06T08:02:49.288Z,20.63
2018-07-06T08:05:17.497Z,20.63
2018-07-06T08:07:45.210Z,20.67
2018-07-06T08:10:13.253Z,20.68
2018-07-06T08:12:41.194Z,20.71
2018-07-06T08:15:08.858Z,20.73
2018-07-06T08:17:36.723Z,20.77
2018-07-06T08:20:04.994Z,20.79
2018-07-06T08:22:32.634Z,20.83
2018-07-06T08:25:00.681Z,20.88
2018-07-06T08:27:28.330Z,20.92
2018-07-06T08:29:55.979Z,20.94
2018-07-06T08:32:23.898Z,20.96
2018-07-06T08:35:02.824Z,20.96
2018-07-06T08:37:44.907Z,20.98
2018-07-06T08:43:11.384Z,21.09
2018-07-06T08:45:39.260Z,21.16
2018-07-06T08:48:06.883Z,21.21
2018-07-06T08:50:34.573Z,21.25
2018-07-06T08:53:03.493Z,21.27
2018-07-06T08:55:31.236Z,21.30
2018-07-06T08:57:59.049Z,21.32
2018-07-06T09:00:27.030Z,21.36
2018-07-06T09:02:54.725Z,21.40
2018-07-06T09:05:22.437Z,21.43
2018-07-06T09:07:50.240Z,21.45
2018-07-06T09:10:17.853Z,21.49
2018-07-06T09:12:45.579Z,21.53
2018-07-06T09:15:14.072Z,21.58
2018-07-06T09:17:41.642Z,21.62
2018-07-06T09:20:09.559Z,21.65
2018-07-06T09:22:37.262Z,21.71
2018-07-06T09:25:06.205Z,21.77
2018-07-06T09:27:34.019Z,21.84
2018-07-06T09:30:01.863Z,21.90
2018-07-06T09:32:29.534Z,21.98
2018-07-06T09:34:57.287Z,22.06
2018-07-06T09:37:25.003Z,22.18
2018-07-06T09:39:52.897Z,22.28
2018-07-06T09:42:20.737Z,22.37
2018-07-06T09:44:48.700Z,22.47
2018-07-06T09:47:16.366Z,22.57
2018-07-06T09:49:44.092Z,22.67
2018-07-06T09:52:11.926Z,22.72
2018-07-06T09:54:39.569Z,22.80
2018-07-06T09:57:07.270Z,22.82
2018-07-06T09:59:35.105Z,22.81
2018-07-06T10:02:02.860Z,22.80
2018-07-06T10:04:30.632Z,22.76
2018-07-06T10:06:58.489Z,22.72
2018-07-06T10:09:26.691Z,22.70
2018-07-06T10:11:54.673Z,22.69
2018-07-06T10:14:22.507Z,22.67
2018-07-06T10:16:50.125Z,22.67
2018-07-06T10:19:18.023Z,22.66
2018-07-06T10:21:45.978Z,22.66
2018-07-06T10:24:13.630Z,22.70
2018-07-06T10:26:41.819Z,22.75
2018-07-06T10:29:20.994Z,22.80
2018-07-06T10:32:28.015Z,22.87
2018-07-06T10:34:55.990Z,22.94
2018-07-06T10:37:25.025Z,22.97
2018-07-06T10:39:53.078Z,22.98
2018-07-06T10:42:20.631Z,22.97
2018-07-06T10:44:48.310Z,22.95
2018-07-06T10:47:15.971Z,22.93
2018-07-06T10:49:43.689Z,22.91
2018-07-06T10:52:12.856Z,22.91
2018-07-06T10:54:41.365Z,22.91
2018-07-06T10:57:09.529Z,22.92
2018-07-06T10:59:37.271Z,22.99
2018-07-06T11:02:05.324Z,23.09
2018-07-06T11:04:33.186Z,23.17
2018-07-06T11:07:01.151Z,23.23
2018-07-06T11:09:28.889Z,23.27
2018-07-06T11:11:56.621Z,23.28
2018-07-06T11:14:24.268Z,23.26
2018-07-06T11:16:52.039Z,23.25
2018-07-06T11:19:20.665Z,23.23
2018-07-06T11:21:48.349Z,23.21
2018-07-06T11:24:16.106Z,23.20
2018-07-06T11:26:43.896Z,23.22
2018-07-06T11:29:11.853Z,23.22
2018-07-06T11:31:39.704Z,23.21
2018-07-06T11:34:07.969Z,23.19
2018-07-06T11:36:35.885Z,23.17
2018-07-06T11:39:05.010Z,23.16
2018-07-06T11:41:32.631Z,23.16
2018-07-06T11:44:00.369Z,23.17
2018-07-06T11:46:28.041Z,23.18
2018-07-06T11:48:55.744Z,23.16
2018-07-06T11:51:23.515Z,23.14
2018-07-06T11:53:51.194Z,23.13
2018-07-06T11:56:18.964Z,23.13
2018-07-06T11:58:47.472Z,23.10
2018-07-06T12:01:15.181Z,23.06
2018-07-06T12:03:43.924Z,23.02
2018-07-06T12:06:11.441Z,22.97
2018-07-06T12:08:39.601Z,22.93
2018-07-06T12:11:07.501Z,22.90
2018-07-06T12:13:35.377Z,22.87
2018-07-06T12:16:03.165Z,22.84
2018-07-06T12:18:32.418Z,22.83
2018-07-06T12:21:00.184Z,22.83
2018-07-06T12:23:28.015Z,22.83
2018-07-06T12:25:55.726Z,22.82
2018-07-06T12:28:23.855Z,22.82
2018-07-06T12:30:51.587Z,22.83
2018-07-06T12:33:19.203Z,22.83
2018-07-06T12:35:46.982Z,22.86
2018-07-06T12:38:14.733Z,22.90
2018-07-06T12:40:42.481Z,22.97
2018-07-06T12:43:10.348Z,23.07
2018-07-06T12:45:38.110Z,23.19
2018-07-06T12:48:06.608Z,23.29
2018-07-06T12:50:34.468Z,23.40
2018-07-06T12:53:02.563Z,23.48
2018-07-06T12:55:30.411Z,23.54
2018-07-06T12:57:59.093Z,23.58
2018-07-06T13:00:27.066Z,23.61
2018-07-06T13:02:54.782Z,23.64
2018-07-06T13:05:22.595Z,23.66
2018-07-06T13:07:50.369Z,23.67
2018-07-06T13:10:18.121Z,23.66
2018-07-06T13:12:45.824Z,23.67
2018-07-06T13:15:13.621Z,23.67
2018-07-06T13:17:41.275Z,23.66
2018-07-06T13:20:09.076Z,23.67
2018-07-06T13:22:37.005Z,23.65
2018-07-06T13:25:04.813Z,23.63
2018-07-06T13:27:32.635Z,23.63
2018-07-06T13:30:00.521Z,23.64
2018-07-06T13:32:28.180Z,23.65
2018-07-06T13:34:57.042Z,23.63
2018-07-06T13:37:25.546Z,23.61
2018-07-06T13:39:53.218Z,23.60
2018-07-06T13:42:21.015Z,23.56
2018-07-06T13:44:48.707Z,23.55
2018-07-06T13:47:16.416Z,23.52
2018-07-06T13:49:44.597Z,23.50
2018-07-06T13:52:12.413Z,23.47
2018-07-06T13:54:40.124Z,23.46
2018-07-06T13:57:08.868Z,23.42
2018-07-06T13:59:36.680Z,23.37
2018-07-06T14:02:04.338Z,23.33
2018-07-06T14:04:32.415Z,23.32
2018-07-06T14:07:00.285Z,23.33
2018-07-06T14:09:27.896Z,23.30
2018-07-06T14:11:55.808Z,23.28
2018-07-06T14:14:23.579Z,23.27
2018-07-06T14:16:51.263Z,23.22
2018-07-06T14:19:19.302Z,23.20
2018-07-06T14:21:47.220Z,23.15
2018-07-06T14:24:14.890Z,23.11
2018-07-06T14:26:42.743Z,23.01
2018-07-06T14:29:10.537Z,22.92
2018-07-06T14:31:38.433Z,22.79
2018-07-06T14:34:06.134Z,22.68
2018-07-06T14:36:33.754Z,22.60
2018-07-06T14:39:01.418Z,22.53
2018-07-06T14:41:29.523Z,22.45
2018-07-06T14:43:57.222Z,22.35
2018-07-06T14:46:24.875Z,22.27
2018-07-06T14:48:52.763Z,22.22
2018-07-06T14:51:20.709Z,22.19
2018-07-06T14:53:48.336Z,22.16
2018-07-06T14:56:16.034Z,22.13
2018-07-06T14:58:43.825Z,22.08
2018-07-06T15:01:11.421Z,22.03
2018-07-06T15:03:39.277Z,22.00
2018-07-06T15:06:07.248Z,21.99
2018-07-06T15:08:34.925Z,21.98
2018-07-06T15:11:02.714Z,21.97
2018-07-06T15:13:30.643Z,21.97
2018-07-06T15:15:58.330Z,21.96
2018-07-06T15:18:26.192Z,21.95
2018-07-06T15:20:54.004Z,21.96
2018-07-06T15:23:21.692Z,21.92
2018-07-06T15:25:49.524Z,21.90
2018-07-06T15:28:17.231Z,21.87
2018-07-06T15:30:44.868Z,21.87
2018-07-06T15:33:12.741Z,21.87
2018-07-06T15:35:40.414Z,21.84
2018-07-06T15:38:08.049Z,21.82
2018-07-06T15:40:35.858Z,21.82
2018-07-06T15:43:03.763Z,21.82
2018-07-06T15:45:31.473Z,21.77
2018-07-06T15:47:59.260Z,21.74
2018-07-06T15:50:27.084Z,21.68
2018-07-06T15:52:55.336Z,21.63
2018-07-06T15:55:23.078Z,21.60
2018-07-06T15:57:50.932Z,21.56
2018-07-06T16:00:18.599Z,21.51
2018-07-06T16:02:46.427Z,21.50
2018-07-06T16:05:14.208Z,21.49
2018-07-06T16:07:41.812Z,21.47
2018-07-06T16:10:09.517Z,21.47
2018-07-06T16:12:37.358Z,21.45
2018-07-06T16:15:05.236Z,21.42
2018-07-06T16:17:32.994Z,21.40
2018-07-06T16:20:00.904Z,21.36
2018-07-06T16:22:28.612Z,21.35
2018-07-06T16:24:56.504Z,21.33
2018-07-06T16:27:24.201Z,21.29
2018-07-06T16:29:51.879Z,21.29
2018-07-06T16:32:19.649Z,21.28
2018-07-06T16:34:47.764Z,21.29
2018-07-06T16:37:15.378Z,21.28
2018-07-06T16:39:43.146Z,21.29
2018-07-06T16:42:10.797Z,21.27
2018-07-06T16:44:38.547Z,21.23
2018-07-06T16:47:06.431Z,21.22
2018-07-06T16:49:34.041Z,21.21
2018-07-06T16:52:01.652Z,21.20
2018-07-06T16:54:29.539Z,21.19
2018-07-06T16:56:57.380Z,21.18
2018-07-06T16:59:25.018Z,20.55
2018-07-06T17:01:52.871Z,21.18
2018-07-06T17:04:20.781Z,21.17
2018-07-06T17:06:48.466Z,21.14
2018-07-06T17:09:16.947Z,21.11
2018-07-06T17:11:44.633Z,21.10
2018-07-06T17:14:12.226Z,21.10
2018-07-06T17:16:40.146Z,21.09
2018-07-06T17:19:08.635Z,21.07
2018-07-06T17:21:36.403Z,21.04
2018-07-06T17:24:04.222Z,21.03
2018-07-06T17:26:32.116Z,21.02
2018-07-06T17:28:59.714Z,21.02
2018-07-06T17:31:27.600Z,21.01
2018-07-06T17:33:55.541Z,20.99
2018-07-06T17:36:23.291Z,21.00
2018-07-06T17:38:51.238Z,21.01
2018-07-06T17:41:19.000Z,21.03
2018-07-06T17:43:46.605Z,21.04
2018-07-06T17:46:14.394Z,21.07
2018-07-06T17:48:42.743Z,21.07
2018-07-06T17:51:10.354Z,21.09
2018-07-06T17:53:38.186Z,21.08
2018-07-06T17:56:05.971Z,21.09
2018-07-06T17:58:33.647Z,21.11
2018-07-06T18:01:01.430Z,21.12
2018-07-06T18:03:29.083Z,21.12
2018-07-06T18:05:57.102Z,21.11
2018-07-06T18:08:25.135Z,21.11
2018-07-06T18:10:52.872Z,21.12
2018-07-06T18:13:20.578Z,21.11
2018-07-06T18:15:48.621Z,21.08
2018-07-06T18:18:16.474Z,21.04
2018-07-06T18:20:44.212Z,21.00
2018-07-06T18:23:12.226Z,20.96
2018-07-06T18:25:40.123Z,20.93
2018-07-06T18:28:07.793Z,20.92
2018-07-06T18:30:35.670Z,20.90
2018-07-06T18:33:03.336Z,20.88
2018-07-06T18:35:31.241Z,20.88
2018-07-06T18:37:59.177Z,20.89
2018-07-06T18:40:27.609Z,20.89
2018-07-06T18:42:55.750Z,20.91
2018-07-06T18:45:23.519Z,20.92
2018-07-06T18:47:51.223Z,20.94
2018-07-06T18:50:18.853Z,20.96
2018-07-06T18:52:46.639Z,20.97
2018-07-06T18:55:14.375Z,21.00
2018-07-06T18:57:42.045Z,21.00
2018-07-06T19:00:09.895Z,21.02
2018-07-06T19:02:38.012Z,21.03
2018-07-06T19:05:05.870Z,21.04
2018-07-06T19:07:33.895Z,21.04
2018-07-06T19:10:01.760Z,21.05
2018-07-06T19:12:29.426Z,21.05
2018-07-06T19:14:57.098Z,21.05
2018-07-06T19:17:25.102Z,21.06
2018-07-06T19:19:52.741Z,21.07
2018-07-06T19:22:21.651Z,21.07
2018-07-06T19:24:49.589Z,21.08
2018-07-06T19:27:17.251Z,21.08
2018-07-06T19:29:45.198Z,21.09
2018-07-06T19:32:12.942Z,21.09
2018-07-06T19:34:40.604Z,21.08
2018-07-06T19:37:08.485Z,21.07
2018-07-06T19:39:36.505Z,21.07
2018-07-06T19:42:05.148Z,21.07
2018-07-06T19:44:33.024Z,21.07
2018-07-06T19:47:00.869Z,21.06
2018-07-06T19:49:28.582Z,21.06
2018-07-06T19:51:57.425Z,21.05
2018-07-06T19:54:25.457Z,21.04
2018-07-06T19:56:53.143Z,21.03
2018-07-06T19:59:22.077Z,21.03
2018-07-06T20:01:50.527Z,21.01
2018-07-06T20:04:19.032Z,21.01
2018-07-06T20:06:46.984Z,20.99
2018-07-06T20:09:14.908Z,20.99
2018-07-06T20:11:42.652Z,20.98
2018-07-06T20:14:10.557Z,20.98
2018-07-06T20:16:38.385Z,20.97
2018-07-06T20:19:06.065Z,20.97
2018-07-06T20:21:33.893Z,20.96
2018-07-06T20:24:01.626Z,20.95
2018-07-06T20:26:29.923Z,20.94
2018-07-06T20:28:57.660Z,20.93
2018-07-06T20:31:25.488Z,20.89
2018-07-06T20:33:53.324Z,20.87
2018-07-06T20:36:21.115Z,20.84
2018-07-06T20:38:48.969Z,20.18
2018-07-06T20:41:16.931Z,20.80
2018-07-06T20:43:44.623Z,20.79
2018-07-06T20:46:12.364Z,20.77
2018-07-06T20:48:40.032Z,20.75
2018-07-06T20:51:07.855Z,20.73
2018-07-06T20:53:35.759Z,20.72
2018-07-06T20:56:03.467Z,20.69
2018-07-06T20:58:31.160Z,20.67
2018-07-06T21:00:59.063Z,20.65
2018-07-06T21:03:26.926Z,20.62
2018-07-06T21:05:54.988Z,20.59
2018-07-06T21:08:22.830Z,20.56
2018-07-06T21:10:50.505Z,20.54
2018-07-06T21:13:18.345Z,20.51
2018-07-06T21:15:46.069Z,20.48
2018-07-06T21:18:13.682Z,19.77
2018-07-06T21:20:41.442Z,20.42
2018-07-06T21:23:09.146Z,20.40
2018-07-06T21:25:36.817Z,20.36
2018-07-06T21:28:05.492Z,20.33
2018-07-06T21:30:33.224Z,20.31
2018-07-06T21:33:00.921Z,20.29
2018-07-06T21:35:28.743Z,20.26
2018-07-06T21:37:56.585Z,20.22
2018-07-06T21:40:24.277Z,20.20
2018-07-06T21:42:52.839Z,20.16
2018-07-06T21:45:20.703Z,20.12
2018-07-06T21:47:48.378Z,20.11
2018-07-06T21:50:16.199Z,20.07
2018-07-06T21:52:43.960Z,20.05
2018-07-06T21:55:11.628Z,20.03
2018-07-06T21:57:39.917Z,20.02
2018-07-06T22:00:07.801Z,19.99
2018-07-06T22:02:35.483Z,19.95
2018-07-06T22:05:03.468Z,19.93
2018-07-06T22:07:31.372Z,19.91
2018-07-06T22:09:59.014Z,19.90
2018-07-06T22:12:26.789Z,19.90
2018-07-06T22:14:54.575Z,19.89
2018-07-06T22:17:22.222Z,19.87
2018-07-06T22:19:49.999Z,19.87
2018-07-06T22:22:17.783Z,19.84
2018-07-06T22:24:47.969Z,19.84
2018-07-06T22:27:15.690Z,19.82
2018-07-06T22:29:43.444Z,19.80
2018-07-06T22:32:11.081Z,19.78
2018-07-06T22:34:38.889Z,19.76
2018-07-06T22:37:06.875Z,19.73
2018-07-06T22:39:34.531Z,19.73
2018-07-06T22:42:02.436Z,19.72
2018-07-06T22:44:30.327Z,19.70
2018-07-06T22:46:57.964Z,19.69
2018-07-06T22:49:25.710Z,19.68
2018-07-06T22:51:53.597Z,19.67
2018-07-06T22:54:21.231Z,19.65
2018-07-06T22:56:50.014Z,19.63
2018-07-06T22:59:17.760Z,19.60
2018-07-06T23:01:45.558Z,19.58
2018-07-06T23:04:13.409Z,19.57
2018-07-06T23:06:41.063Z,19.55
2018-07-06T23:09:08.704Z,19.54
2018-07-06T23:11:36.575Z,19.53
2018-07-06T23:14:04.336Z,19.51
2018-07-06T23:16:31.981Z,19.50
2018-07-06T23:18:59.829Z,19.48
2018-07-06T23:21:27.799Z,19.46
2018-07-06T23:23:55.510Z,19.44
2018-07-06T23:26:23.285Z,19.42
2018-07-06T23:28:51.201Z,19.40
2018-07-06T23:31:18.950Z,19.39
2018-07-06T23:33:46.656Z,19.38
2018-07-06T23:36:14.419Z,19.36
2018-07-06T23:38:42.116Z,19.33
2018-07-06T23:41:09.912Z,19.32
2018-07-06T23:43:37.763Z,19.31
2018-07-06T23:46:05.662Z,19.29
2018-07-06T23:48:33.461Z,19.28
2018-07-06T23:51:01.190Z,19.26
2018-07-06T23:53:28.896Z,19.26
2018-07-06T23:55:56.712Z,19.24
2018-07-06T23:58:24.606Z,19.24
